Terminal Aerodrome Forecast
Issued by NWS

Current Version | Previous Version | Text Only | Print | Product List | Glossary On
Versions: 1 2 3 4 5 6 7 8 9 10 11 12 13
912
FTUS42 KTBW 122326
TAFPIE
TAF
KPIE 122326Z 1300/1324 24009KT P6SM SKC
     FM130800 29009KT P6SM FEW020
     FM131000 32007KT P6SM SCT010
     FM131300 36010G15KT P6SM FEW060=

USA.gov is the U.S. government's official web portal to all federal, state and local government web resources and services.